Time;durP1;ratioP1;P1;durP2;ratioP2;P2;SDS_P1;SDS_P2;PMS_P1;PMS_P2;Temp;Humidity;BMP_temperature;BMP_pressure;BME280_temperature;BME280_humidity;BME280_pressure;Samples;Min_cycle;Max_cycle;Signal;HPM_P1;HPM_P2
2022/03/21 00:01:32;;;;;;;7.57;3.92;;;;;;;;;;5063781;28;20036;-72
2022/03/21 00:03:59;;;;;;;7.70;3.55;;;;;;;;;;5070015;28;20025;-71
2022/03/21 00:06:26;;;;;;;9.48;3.40;;;;;;;;;;5068399;28;20039;-76
2022/03/21 00:08:52;;;;;;;6.47;3.40;;;;;;;;;;5068255;28;20052;-72
2022/03/21 00:11:20;;;;;;;5.05;3.40;;;;;;;;;;5068353;28;20020;-71
2022/03/21 00:13:49;;;;;;;6.38;3.33;;;;;;;;;;5070452;28;20021;-75
2022/03/21 00:16:16;;;;;;;5.55;3.40;;;;;;;;;;5073376;28;20056;-74
2022/03/21 00:18:43;;;;;;;7.85;3.72;;;;;;;;;;5073045;28;20029;-73
2022/03/21 00:21:09;;;;;;;7.45;3.53;;;;;;;;;;5073259;28;20464;-72
2022/03/21 00:23:36;;;;;;;6.05;3.45;;;;;;;;;;5072664;28;20028;-72
2022/03/21 00:26:04;;;;;;;4.28;3.15;;;;;;;;;;5070564;28;20463;-72
2022/03/21 00:28:31;;;;;;;3.63;2.80;;;;;;;;;;5067768;28;20063;-71
2022/03/21 00:30:58;;;;;;;4.75;2.88;;;;;;;;;;5061505;28;20036;-71
2022/03/21 00:33:25;;;;;;;4.82;2.35;;;;;;;;;;5066206;28;20098;-74
2022/03/21 00:35:52;;;;;;;4.22;3.15;;;;;;;;;;5068714;28;20078;-72
2022/03/21 00:38:19;;;;;;;4.82;3.08;;;;;;;;;;5072832;28;20058;-72
2022/03/21 00:40:48;;;;;;;4.72;2.83;;;;;;;;;;5072987;28;20407;-74
2022/03/21 00:43:17;;;;;;;8.32;3.20;;;;;;;;;;5072986;28;20067;-75
2022/03/21 00:45:46;;;;;;;5.93;2.60;;;;;;;;;;5032589;28;20024;-77
2022/03/21 00:48:13;;;;;;;3.92;2.70;;;;;;;;;;5030390;28;20033;-76
2022/03/21 00:50:40;;;;;;;6.25;2.90;;;;;;;;;;5043195;28;20028;-74
2022/03/21 00:53:06;;;;;;;5.67;3.67;;;;;;;;;;5067397;28;20490;-73
2022/03/21 00:55:33;;;;;;;11.90;3.85;;;;;;;;;;5067482;28;20430;-73
2022/03/21 00:58:00;;;;;;;7.15;4.30;;;;;;;;;;5068950;28;20052;-72
2022/03/21 01:00:29;;;;;;;6.00;4.03;;;;;;;;;;5072455;28;20078;-74
2022/03/21 01:02:57;;;;;;;7.57;4.00;;;;;;;;;;5072176;28;20052;-72
2022/03/21 01:05:24;;;;;;;7.07;4.10;;;;;;;;;;5066440;28;20029;-71
2022/03/21 01:07:51;;;;;;;4.90;3.63;;;;;;;;;;5052537;28;20071;-71
2022/03/21 01:10:19;;;;;;;9.00;5.03;;;;;;;;;;5050516;28;20039;-76
2022/03/21 01:12:46;;;;;;;6.03;4.23;;;;;;;;;;5047147;28;20025;-72
2022/03/21 01:15:14;;;;;;;8.67;4.50;;;;;;;;;;5047193;28;20025;-72
2022/03/21 01:17:44;;;;;;;7.50;3.63;;;;;;;;;;5047048;28;20465;-71
2022/03/21 01:20:13;;;;;;;8.40;3.73;;;;;;;;;;5048405;28;20040;-74
2022/03/21 01:22:40;;;;;;;6.70;3.43;;;;;;;;;;5052108;28;20025;-74
2022/03/21 01:25:07;;;;;;;6.63;3.87;;;;;;;;;;5052275;28;20025;-74
2022/03/21 01:27:34;;;;;;;6.47;3.67;;;;;;;;;;5051954;28;20017;-73
2022/03/21 01:30:03;;;;;;;7.30;3.80;;;;;;;;;;5052129;28;20456;-73
2022/03/21 01:32:32;;;;;;;5.00;3.27;;;;;;;;;;5062393;28;20025;-74
2022/03/21 01:34:59;;;;;;;7.40;3.67;;;;;;;;;;5066956;28;20349;-73
2022/03/21 01:37:26;;;;;;;5.17;3.40;;;;;;;;;;5067183;28;20198;-74
2022/03/21 01:39:53;;;;;;;4.63;3.03;;;;;;;;;;5067152;28;20519;-74
2022/03/21 01:42:20;;;;;;;5.37;3.13;;;;;;;;;;5068108;28;20109;-74
2022/03/21 01:44:50;;;;;;;6.77;3.60;;;;;;;;;;5059369;28;20036;-73
2022/03/21 01:47:17;;;;;;;6.37;3.70;;;;;;;;;;5052134;28;20461;-74
2022/03/21 01:49:45;;;;;;;6.47;3.30;;;;;;;;;;5051335;28;20017;-73
2022/03/21 01:52:12;;;;;;;8.10;3.43;;;;;;;;;;5051974;28;20107;-74
2022/03/21 01:57:25;;;;;;;5.07;3.00;;;;;;;;;;5046855;28;20495;-74
2022/03/21 01:59:52;;;;;;;5.47;3.07;;;;;;;;;;5047559;28;20029;-74
2022/03/21 02:02:19;;;;;;;5.50;3.77;;;;;;;;;;5047769;28;20033;-74
2022/03/21 02:04:46;;;;;;;5.53;3.93;;;;;;;;;;5031816;28;20028;-73
2022/03/21 02:07:13;;;;;;;6.57;4.57;;;;;;;;;;5035674;28;20473;-73
2022/03/21 02:09:41;;;;;;;5.47;4.00;;;;;;;;;;5049523;28;20020;-73
2022/03/21 02:12:08;;;;;;;5.60;3.87;;;;;;;;;;5075674;28;20017;-73
2022/03/21 02:14:39;;;;;;;8.37;4.27;;;;;;;;;;5071871;28;20025;-73
2022/03/21 02:17:10;;;;;;;5.67;3.93;;;;;;;;;;5053539;28;20033;-73
2022/03/21 02:19:38;;;;;;;7.87;5.07;;;;;;;;;;5050376;28;20103;-73
2022/03/21 02:22:30;;;;;;;6.37;4.10;;;;;;;;;;5050522;28;20021;-74
2022/03/21 02:24:57;;;;;;;5.70;3.37;;;;;;;;;;5050525;28;20377;-73
2022/03/21 02:27:27;;;;;;;8.03;3.87;;;;;;;;;;5062560;28;20025;-74
2022/03/21 02:29:55;;;;;;;8.03;3.60;;;;;;;;;;5055711;28;20445;-74
2022/03/21 02:32:23;;;;;;;6.90;3.90;;;;;;;;;;5054867;28;20025;-74
2022/03/21 02:34:50;;;;;;;6.87;3.70;;;;;;;;;;5055182;28;20464;-73
2022/03/21 02:37:18;;;;;;;7.13;3.60;;;;;;;;;;5055224;28;20044;-74
2022/03/21 02:39:46;;;;;;;7.00;4.27;;;;;;;;;;5053031;28;20416;-73
2022/03/21 02:42:14;;;;;;;8.57;4.23;;;;;;;;;;5049705;28;20373;-73
2022/03/21 02:44:41;;;;;;;8.90;3.77;;;;;;;;;;5049089;28;20041;-74
2022/03/21 02:47:08;;;;;;;9.10;3.90;;;;;;;;;;5050129;28;20434;-73
2022/03/21 02:49:36;;;;;;;9.30;3.37;;;;;;;;;;5051019;28;20066;-74
2022/03/21 02:52:05;;;;;;;5.93;3.50;;;;;;;;;;5054715;28;20028;-73
2022/03/21 02:54:32;;;;;;;6.20;4.53;;;;;;;;;;5054925;28;20061;-73
2022/03/21 02:56:59;;;;;;;9.80;4.43;;;;;;;;;;5054474;28;20037;-73
2022/03/21 02:59:26;;;;;;;6.57;4.03;;;;;;;;;;5054566;28;20028;-73
2022/03/21 03:01:53;;;;;;;10.73;4.57;;;;;;;;;;5052960;28;20520;-74
2022/03/21 03:04:27;;;;;;;5.43;3.80;;;;;;;;;;5049699;28;20032;-73
2022/03/21 03:06:54;;;;;;;10.87;4.17;;;;;;;;;;5049754;28;20573;-73
2022/03/21 03:09:22;;;;;;;8.47;4.27;;;;;;;;;;5049205;28;20044;-73
2022/03/21 03:11:49;;;;;;;5.47;3.53;;;;;;;;;;5051200;28;20078;-73
2022/03/21 03:14:16;;;;;;;6.20;4.37;;;;;;;;;;5052907;28;20476;-73
2022/03/21 03:16:43;;;;;;;6.70;3.40;;;;;;;;;;5054349;28;20033;-74
2022/03/21 03:19:10;;;;;;;8.00;3.87;;;;;;;;;;5054485;28;20116;-73
2022/03/21 03:21:39;;;;;;;5.60;3.70;;;;;;;;;;5055466;28;20036;-73
2022/03/21 03:24:06;;;;;;;6.23;3.60;;;;;;;;;;5072312;28;20414;-74
2022/03/21 03:26:33;;;;;;;10.17;3.83;;;;;;;;;;5066940;28;20020;-74
2022/03/21 03:29:00;;;;;;;9.17;4.17;;;;;;;;;;5068669;28;20024;-73
2022/03/21 03:31:28;;;;;;;7.13;3.23;;;;;;;;;;5069226;28;20606;-73
2022/03/21 03:33:55;;;;;;;8.70;3.60;;;;;;;;;;5069995;28;20033;-73
2022/03/21 03:36:23;;;;;;;9.33;4.20;;;;;;;;;;5074021;28;20066;-73
2022/03/21 03:38:51;;;;;;;6.13;3.73;;;;;;;;;;5074110;28;20036;-73
2022/03/21 03:41:19;;;;;;;12.20;3.90;;;;;;;;;;5074035;28;20024;-74
2022/03/21 03:43:49;;;;;;;5.37;3.20;;;;;;;;;;5069757;28;20036;-73
2022/03/21 03:46:18;;;;;;;6.47;4.07;;;;;;;;;;5052425;28;20031;-74
2022/03/21 03:48:45;;;;;;;5.90;3.90;;;;;;;;;;5048972;28;20021;-74
2022/03/21 03:51:13;;;;;;;8.77;4.17;;;;;;;;;;5048746;28;20070;-73
2022/03/21 03:53:41;;;;;;;4.73;3.10;;;;;;;;;;5048750;28;20095;-73
2022/03/21 03:56:08;;;;;;;6.47;2.83;;;;;;;;;;5050073;28;20495;-73
2022/03/21 03:58:35;;;;;;;5.17;3.30;;;;;;;;;;5053623;28;20045;-73
2022/03/21 04:01:04;;;;;;;7.50;3.87;;;;;;;;;;5073093;28;20021;-73
2022/03/21 04:03:47;;;;;;;7.10;3.47;;;;;;;;;;5073522;28;20020;-74
2022/03/21 04:06:18;;;;;;;8.43;4.20;;;;;;;;;;5073423;28;20103;-73
2022/03/21 04:08:45;;;;;;;7.37;4.00;;;;;;;;;;5071671;28;20020;-74
2022/03/21 04:11:12;;;;;;;11.50;3.90;;;;;;;;;;5068181;28;20028;-73
2022/03/21 04:13:40;;;;;;;9.03;3.33;;;;;;;;;;5068361;28;20074;-74
2022/03/21 04:16:07;;;;;;;10.80;4.33;;;;;;;;;;5068240;28;20212;-73
2022/03/21 04:18:35;;;;;;;8.23;4.20;;;;;;;;;;5068986;28;20040;-73
2022/03/21 04:21:02;;;;;;;8.27;4.03;;;;;;;;;;5073125;28;20491;-74
2022/03/21 04:23:29;;;;;;;8.40;4.37;;;;;;;;;;5073166;28;20024;-73
2022/03/21 04:25:56;;;;;;;11.67;4.40;;;;;;;;;;5067982;28;20495;-73
2022/03/21 04:28:23;;;;;;;8.80;4.73;;;;;;;;;;5052693;28;20036;-73
2022/03/21 04:30:50;;;;;;;6.20;3.70;;;;;;;;;;5051868;28;20468;-73
2022/03/21 04:33:17;;;;;;;8.13;3.30;;;;;;;;;;5047848;28;20477;-73
2022/03/21 04:35:45;;;;;;;6.83;3.23;;;;;;;;;;5047898;28;20491;-73
2022/03/21 04:38:14;;;;;;;15.83;4.20;;;;;;;;;;5048042;28;20041;-73
2022/03/21 04:40:42;;;;;;;10.53;4.63;;;;;;;;;;5048234;28;20049;-73
2022/03/21 04:43:09;;;;;;;15.17;3.83;;;;;;;;;;5052992;28;20419;-74
2022/03/21 04:45:37;;;;;;;7.33;3.67;;;;;;;;;;5052401;28;20025;-73
2022/03/21 04:48:04;;;;;;;5.80;4.00;;;;;;;;;;5052916;28;20025;-73
2022/03/21 04:50:33;;;;;;;7.70;3.83;;;;;;;;;;5052735;28;20028;-73
2022/03/21 04:53:00;;;;;;;7.33;3.70;;;;;;;;;;5051486;28;20017;-73
2022/03/21 04:55:30;;;;;;;6.53;3.60;;;;;;;;;;5047494;28;20029;-73
2022/03/21 04:57:57;;;;;;;12.10;4.43;;;;;;;;;;5047460;28;20037;-73
2022/03/21 05:00:24;;;;;;;5.63;3.97;;;;;;;;;;5048322;28;20025;-73
2022/03/21 05:02:51;;;;;;;12.63;3.80;;;;;;;;;;5048440;28;20028;-73
2022/03/21 05:05:17;;;;;;;7.23;3.43;;;;;;;;;;5068774;28;20032;-73
2022/03/21 05:07:52;;;;;;;9.80;3.70;;;;;;;;;;5072482;28;20023;-73
2022/03/21 05:10:21;;;;;;;9.77;3.40;;;;;;;;;;5072297;28;20044;-73
2022/03/21 05:12:50;;;;;;;8.47;3.70;;;;;;;;;;5072369;28;20095;-73
2022/03/21 05:15:18;;;;;;;5.97;3.47;;;;;;;;;;5071224;28;20515;-73
2022/03/21 05:17:44;;;;;;;8.07;3.40;;;;;;;;;;5064877;28;20349;-73
2022/03/21 05:20:15;;;;;;;8.73;4.30;;;;;;;;;;5047200;28;20044;-74
2022/03/21 05:22:42;;;;;;;6.23;4.10;;;;;;;;;;5047237;28;20029;-73
2022/03/21 05:30:57;;;;;;;11.27;4.80;;;;;;;;;;5058887;28;20043;-73
2022/03/21 05:36:09;;;;;;;4.80;3.35;;;;;;;;;;5052487;28;20455;-73
2022/03/21 05:38:36;;;;;;;5.70;3.40;;;;;;;;;;5052595;28;20041;-73
2022/03/21 05:41:03;;;;;;;6.70;3.97;;;;;;;;;;5051235;28;20100;-73
2022/03/21 05:43:33;;;;;;;5.87;3.60;;;;;;;;;;5051004;28;20033;-73
2022/03/21 05:46:01;;;;;;;9.03;3.67;;;;;;;;;;5050929;28;20384;-73
2022/03/21 05:51:17;;;;;;;5.10;2.93;;;;;;;;;;5056080;28;20557;-73
2022/03/21 05:53:47;;;;;;;7.43;3.40;;;;;;;;;;5056111;28;20024;-73
2022/03/21 05:56:14;;;;;;;6.63;3.50;;;;;;;;;;5055589;28;20057;-73
2022/03/21 05:58:42;;;;;;;8.43;3.33;;;;;;;;;;5055734;28;20036;-73
2022/03/21 06:01:11;;;;;;;6.50;3.97;;;;;;;;;;5052022;28;20025;-73
2022/03/21 06:03:38;;;;;;;5.57;3.67;;;;;;;;;;5050865;28;20017;-73
2022/03/21 06:06:05;;;;;;;6.27;3.87;;;;;;;;;;5050764;28;20563;-73
2022/03/21 06:08:32;;;;;;;6.33;3.57;;;;;;;;;;5050845;28;20066;-73
2022/03/21 06:11:04;;;;;;;5.63;3.30;;;;;;;;;;5052241;28;20025;-74
2022/03/21 06:13:32;;;;;;;6.07;3.73;;;;;;;;;;5055742;28;20047;-75
2022/03/21 06:16:03;;;;;;;12.10;4.10;;;;;;;;;;5055654;28;20472;-75
2022/03/21 06:18:30;;;;;;;5.87;3.20;;;;;;;;;;5055356;28;20068;-72
2022/03/21 06:20:57;;;;;;;4.60;3.30;;;;;;;;;;5055499;28;20021;-75
2022/03/21 06:23:24;;;;;;;5.17;3.20;;;;;;;;;;5051689;28;20047;-77
2022/03/21 06:25:53;;;;;;;4.40;3.10;;;;;;;;;;5059671;28;20067;-76
2022/03/21 06:28:21;;;;;;;6.60;3.30;;;;;;;;;;5070392;28;20025;-76
2022/03/21 06:30:50;;;;;;;5.60;3.33;;;;;;;;;;5069650;28;20027;-76
2022/03/21 06:33:17;;;;;;;5.63;3.03;;;;;;;;;;5071691;28;20067;-76
2022/03/21 06:35:44;;;;;;;4.93;2.80;;;;;;;;;;5073199;28;20029;-76
2022/03/21 06:38:10;;;;;;;8.13;4.33;;;;;;;;;;5073078;28;20033;-76
2022/03/21 06:40:38;;;;;;;5.20;3.50;;;;;;;;;;5073028;28;20383;-76
2022/03/21 06:43:04;;;;;;;4.60;2.87;;;;;;;;;;5073260;28;20032;-76
2022/03/21 06:45:32;;;;;;;5.20;2.83;;;;;;;;;;5070241;28;20031;-76
2022/03/21 06:47:58;;;;;;;5.20;3.03;;;;;;;;;;5069142;28;20108;-76
2022/03/21 06:50:25;;;;;;;4.10;2.90;;;;;;;;;;5068945;28;20017;-76
2022/03/21 06:52:52;;;;;;;4.53;3.17;;;;;;;;;;5069553;28;20021;-76
2022/03/21 06:55:20;;;;;;;5.97;4.53;;;;;;;;;;5066747;28;20048;-75
2022/03/21 06:57:47;;;;;;;7.33;3.07;;;;;;;;;;5054151;28;20039;-75
2022/03/21 07:00:14;;;;;;;6.30;3.83;;;;;;;;;;5054652;28;20466;-76
2022/03/21 07:02:41;;;;;;;6.73;3.03;;;;;;;;;;5054832;28;20021;-76
2022/03/21 07:05:08;;;;;;;7.00;3.37;;;;;;;;;;5054548;28;20021;-76
2022/03/21 07:07:35;;;;;;;6.07;2.97;;;;;;;;;;5051459;28;20033;-75
2022/03/21 07:10:05;;;;;;;5.20;3.10;;;;;;;;;;5049382;28;20025;-76
2022/03/21 07:12:32;;;;;;;5.43;3.83;;;;;;;;;;5049234;28;20029;-75
2022/03/21 07:14:59;;;;;;;6.17;3.60;;;;;;;;;;5049281;28;20464;-75
2022/03/21 07:17:25;;;;;;;6.57;3.60;;;;;;;;;;5051410;28;20444;-75
2022/03/21 07:19:52;;;;;;;6.50;3.50;;;;;;;;;;5054143;28;20047;-75
2022/03/21 07:22:19;;;;;;;7.37;3.93;;;;;;;;;;5054263;28;20108;-75
2022/03/21 07:24:46;;;;;;;5.57;3.70;;;;;;;;;;5065557;28;20091;-76
2022/03/21 07:27:13;;;;;;;5.37;3.70;;;;;;;;;;5054887;28;20029;-75
2022/03/21 07:29:39;;;;;;;7.07;3.90;;;;;;;;;;5051200;28;20025;-75
2022/03/21 07:32:07;;;;;;;5.57;2.97;;;;;;;;;;5048931;28;20079;-75
2022/03/21 07:34:34;;;;;;;5.70;4.03;;;;;;;;;;5048963;28;20056;-75
2022/03/21 07:37:00;;;;;;;8.10;3.70;;;;;;;;;;5048827;28;20055;-75
2022/03/21 07:39:29;;;;;;;4.77;3.37;;;;;;;;;;5050524;28;20055;-75
2022/03/21 07:42:00;;;;;;;6.80;3.40;;;;;;;;;;5054054;28;20029;-76
2022/03/21 07:47:21;;;;;;;4.50;2.93;;;;;;;;;;5054010;28;20040;-75
2022/03/21 07:49:49;;;;;;;6.30;3.63;;;;;;;;;;5053624;28;20476;-75
2022/03/21 07:52:20;;;;;;;4.23;2.80;;;;;;;;;;5050714;28;20075;-75
2022/03/21 07:54:55;;;;;;;4.67;3.27;;;;;;;;;;5048223;28;20017;-75
2022/03/21 07:57:23;;;;;;;4.50;3.33;;;;;;;;;;5066990;28;20380;-76
2022/03/21 07:59:50;;;;;;;6.47;3.97;;;;;;;;;;5067934;28;20021;-75
2022/03/21 08:02:21;;;;;;;5.57;3.50;;;;;;;;;;5071047;28;20027;-76
2022/03/21 08:04:48;;;;;;;4.90;3.30;;;;;;;;;;5073465;28;20020;-75
2022/03/21 08:07:18;;;;;;;7.23;3.60;;;;;;;;;;5073075;28;20055;-75
2022/03/21 08:09:46;;;;;;;8.37;3.60;;;;;;;;;;5073365;28;20016;-75
2022/03/21 08:12:13;;;;;;;5.07;3.23;;;;;;;;;;5073207;28;20017;-75
2022/03/21 08:14:40;;;;;;;7.17;3.60;;;;;;;;;;5069896;28;20020;-75
2022/03/21 08:17:06;;;;;;;5.03;3.13;;;;;;;;;;5067630;28;20319;-75
2022/03/21 08:19:34;;;;;;;4.90;2.93;;;;;;;;;;5067909;28;20032;-75
2022/03/21 08:22:00;;;;;;;5.57;3.40;;;;;;;;;;5067886;28;20498;-75
2022/03/21 08:24:28;;;;;;;5.03;3.10;;;;;;;;;;5058644;28;20033;-75
2022/03/21 08:26:54;;;;;;;5.33;3.60;;;;;;;;;;5053054;28;20032;-75
2022/03/21 08:29:21;;;;;;;7.33;3.83;;;;;;;;;;5052676;28;20032;-75
2022/03/21 08:31:48;;;;;;;6.23;3.33;;;;;;;;;;5053048;28;20020;-75
2022/03/21 08:34:15;;;;;;;5.90;3.63;;;;;;;;;;5052730;28;20025;-75
2022/03/21 08:36:41;;;;;;;4.53;3.13;;;;;;;;;;5050042;28;20029;-75
2022/03/21 08:39:10;;;;;;;6.43;3.43;;;;;;;;;;5047650;28;20075;-75
2022/03/21 08:41:37;;;;;;;5.40;3.77;;;;;;;;;;5047473;28;20465;-75
2022/03/21 08:44:04;;;;;;;6.13;3.57;;;;;;;;;;5047628;28;20032;-75
2022/03/21 08:46:30;;;;;;;5.53;3.60;;;;;;;;;;5050031;28;20384;-75
2022/03/21 08:51:43;;;;;;;5.53;3.50;;;;;;;;;;5051937;28;20396;-75
2022/03/21 08:54:10;;;;;;;5.67;3.37;;;;;;;;;;5060848;28;20526;-75
2022/03/21 08:56:37;;;;;;;5.40;3.50;;;;;;;;;;5071671;28;20055;-75
2022/03/21 08:59:04;;;;;;;7.83;2.87;;;;;;;;;;5049406;28;20095;-75
2022/03/21 09:01:31;;;;;;;5.03;3.30;;;;;;;;;;5047393;28;20032;-75
2022/03/21 09:04:02;;;;;;;8.43;4.60;;;;;;;;;;5047274;28;20058;-75
2022/03/21 09:06:29;;;;;;;6.77;4.17;;;;;;;;;;5046797;28;20052;-75
2022/03/21 09:08:56;;;;;;;6.07;4.00;;;;;;;;;;5049375;28;20088;-75
2022/03/21 09:11:23;;;;;;;7.03;4.17;;;;;;;;;;5051698;28;20033;-75
2022/03/21 09:13:50;;;;;;;6.93;4.10;;;;;;;;;;5052296;28;20468;-75
2022/03/21 09:16:17;;;;;;;4.40;3.20;;;;;;;;;;5052167;28;20029;-75
2022/03/21 09:18:44;;;;;;;7.53;2.97;;;;;;;;;;5052263;28;20033;-75
2022/03/21 09:21:12;;;;;;;5.57;3.40;;;;;;;;;;5049820;28;20025;-75
2022/03/21 09:23:40;;;;;;;6.57;3.33;;;;;;;;;;5046773;28;20079;-75
2022/03/21 09:26:11;;;;;;;8.17;4.20;;;;;;;;;;5053976;28;20021;-75
2022/03/21 09:28:39;;;;;;;8.17;4.70;;;;;;;;;;5067023;28;20025;-75
2022/03/21 09:31:09;;;;;;;6.27;4.00;;;;;;;;;;5068963;28;20446;-75
2022/03/21 09:33:37;;;;;;;5.57;3.60;;;;;;;;;;5072260;28;20111;-75
2022/03/21 09:36:07;;;;;;;7.10;4.40;;;;;;;;;;5071950;28;20025;-75
2022/03/21 09:38:34;;;;;;;4.37;2.97;;;;;;;;;;5071950;28;20043;-75
2022/03/21 09:41:03;;;;;;;6.50;3.23;;;;;;;;;;5072034;28;20036;-75
2022/03/21 09:43:29;;;;;;;6.83;3.07;;;;;;;;;;5069274;28;20433;-75
2022/03/21 09:45:59;;;;;;;6.93;3.57;;;;;;;;;;5065053;28;20054;-75
2022/03/21 09:48:27;;;;;;;5.87;3.57;;;;;;;;;;5066704;28;20032;-75
2022/03/21 09:50:56;;;;;;;7.63;3.80;;;;;;;;;;5066466;28;20020;-75
2022/03/21 09:53:24;;;;;;;4.13;2.43;;;;;;;;;;5068732;28;20048;-75
2022/03/21 09:55:51;;;;;;;5.37;3.23;;;;;;;;;;5071814;28;20021;-75
2022/03/21 09:58:20;;;;;;;4.40;2.80;;;;;;;;;;5071797;28;20036;-75
2022/03/21 10:00:48;;;;;;;5.33;3.60;;;;;;;;;;5071796;28;20115;-75
2022/03/21 10:03:16;;;;;;;4.77;3.20;;;;;;;;;;5071897;28;20494;-75
2022/03/21 10:05:44;;;;;;;5.87;3.90;;;;;;;;;;5068891;28;20054;-75
2022/03/21 10:08:15;;;;;;;4.93;3.20;;;;;;;;;;5066610;28;20025;-75
2022/03/21 10:10:42;;;;;;;6.53;3.67;;;;;;;;;;5066507;28;20056;-75
2022/03/21 10:13:09;;;;;;;5.67;3.17;;;;;;;;;;5066537;28;20021;-75
2022/03/21 10:15:37;;;;;;;5.80;4.00;;;;;;;;;;5068252;28;20101;-75
2022/03/21 10:18:07;;;;;;;6.63;3.30;;;;;;;;;;5051856;28;20033;-75
2022/03/21 10:20:35;;;;;;;6.57;3.97;;;;;;;;;;5051237;28;20025;-75
2022/03/21 10:23:22;;;;;;;6.63;4.50;;;;;;;;;;5052529;28;20040;-75
2022/03/21 10:25:48;;;;;;;8.60;4.63;;;;;;;;;;5060657;28;20025;-75
2022/03/21 10:28:34;;;;;;;6.57;4.30;;;;;;;;;;5072531;28;20024;-75
2022/03/21 10:31:01;;;;;;;8.30;5.57;;;;;;;;;;5070011;28;20379;-75
2022/03/21 10:33:28;;;;;;;7.77;4.87;;;;;;;;;;5070002;28;20475;-75
2022/03/21 10:35:55;;;;;;;7.17;4.73;;;;;;;;;;5069896;28;20387;-75
2022/03/21 10:38:32;;;;;;;7.50;5.00;;;;;;;;;;5072595;28;20032;-75
2022/03/21 10:41:05;;;;;;;6.90;4.67;;;;;;;;;;5074989;28;20096;-75
2022/03/21 10:43:32;;;;;;;6.37;4.10;;;;;;;;;;5075350;28;20017;-75
2022/03/21 10:45:59;;;;;;;6.03;4.30;;;;;;;;;;5072856;28;20581;-74
2022/03/21 10:48:26;;;;;;;9.43;5.20;;;;;;;;;;5054898;28;20013;-75
2022/03/21 10:50:54;;;;;;;9.17;6.03;;;;;;;;;;5051089;28;20175;-75
2022/03/21 10:53:34;;;;;;;7.33;4.67;;;;;;;;;;5049601;28;20061;-75
2022/03/21 10:56:04;;;;;;;8.43;4.97;;;;;;;;;;5059637;28;20017;-75
2022/03/21 10:58:37;;;;;;;8.47;4.73;;;;;;;;;;5069324;28;20033;-75
2022/03/21 11:01:11;;;;;;;10.30;5.30;;;;;;;;;;5073188;28;20107;-75
2022/03/21 11:03:41;;;;;;;10.70;5.70;;;;;;;;;;5074597;28;20262;-75
2022/03/21 11:06:11;;;;;;;7.47;4.67;;;;;;;;;;5074218;28;20801;-75
2022/03/21 11:08:38;;;;;;;7.53;4.77;;;;;;;;;;5074479;28;20262;-74
2022/03/21 11:11:05;;;;;;;8.67;5.77;;;;;;;;;;5063105;28;20111;-75
2022/03/21 11:13:33;;;;;;;7.23;4.63;;;;;;;;;;5050000;28;20044;-75
2022/03/21 11:16:00;;;;;;;8.23;5.03;;;;;;;;;;5049423;28;20261;-75
2022/03/21 11:18:27;;;;;;;6.50;4.27;;;;;;;;;;5051423;28;20313;-75
2022/03/21 11:20:54;;;;;;;8.67;4.53;;;;;;;;;;5068786;28;20254;-75
2022/03/21 11:23:21;;;;;;;7.30;4.97;;;;;;;;;;5072742;28;20264;-75
2022/03/21 11:25:56;;;;;;;5.60;3.60;;;;;;;;;;5074139;28;20320;-75
2022/03/21 11:28:40;;;;;;;8.77;4.78;;;;;;;;;;5074016;28;20249;-75
2022/03/21 11:31:25;;;;;;;7.00;4.80;;;;;;;;;;5073893;28;20111;-75
2022/03/21 11:34:11;;;;;;;8.43;5.65;;;;;;;;;;5073942;28;20257;-75
2022/03/21 11:36:51;;;;;;;7.00;4.90;;;;;;;;;;5068348;28;20017;-75
2022/03/21 11:39:18;;;;;;;7.23;4.10;;;;;;;;;;5068698;28;20261;-75
2022/03/21 11:42:06;;;;;;;5.37;3.70;;;;;;;;;;5057957;28;20273;-75
2022/03/21 11:44:33;;;;;;;7.83;4.93;;;;;;;;;;5050071;28;20266;-75
2022/03/21 11:47:18;;;;;;;7.67;4.97;;;;;;;;;;5053573;28;20636;-74
2022/03/21 11:49:45;;;;;;;7.75;3.50;;;;;;;;;;5053944;28;20687;-75
2022/03/21 11:52:12;;;;;;;6.03;3.77;;;;;;;;;;5053701;28;20032;-75
2022/03/21 11:54:39;;;;;;;6.53;3.80;;;;;;;;;;5053644;28;20258;-74
2022/03/21 11:57:18;;;;;;;7.57;4.17;;;;;;;;;;5050995;28;20380;-75
2022/03/21 11:59:46;;;;;;;10.10;4.77;;;;;;;;;;5048430;28;20625;-75
2022/03/21 12:02:17;;;;;;;7.03;4.40;;;;;;;;;;5048341;28;20282;-74
2022/03/21 12:04:56;;;;;;;13.43;5.00;;;;;;;;;;5048310;28;20251;-75
2022/03/21 12:07:22;;;;;;;8.20;4.70;;;;;;;;;;5051148;28;20725;-75
2022/03/21 12:09:50;;;;;;;7.83;3.73;;;;;;;;;;5052978;28;20784;-75
2022/03/21 12:12:17;;;;;;;10.20;4.30;;;;;;;;;;5068942;28;20269;-74
2022/03/21 12:14:44;;;;;;;8.03;4.60;;;;;;;;;;5073502;28;20315;-74
2022/03/21 12:17:11;;;;;;;11.27;7.40;;;;;;;;;;5072988;28;20335;-75
2022/03/21 12:22:28;;;;;;;8.07;4.27;;;;;;;;;;5067540;28;20253;-75
2022/03/21 12:24:59;;;;;;;6.53;3.93;;;;;;;;;;5067833;28;20853;-74
2022/03/21 12:27:44;;;;;;;9.40;5.37;;;;;;;;;;5067985;28;20258;-75
2022/03/21 12:30:30;;;;;;;9.00;5.38;;;;;;;;;;5071666;28;20342;-74
2022/03/21 12:32:56;;;;;;;;;;;;;;;;;;5073358;28;20024;-74
2022/03/21 12:35:32;;;;;;;8.97;4.60;;;;;;;;;;5072751;28;19904;-74
2022/03/21 12:38:06;;;;;;;5.60;3.47;;;;;;;;;;5072704;28;20281;-75
2022/03/21 12:40:53;;;;;;;6.30;3.80;;;;;;;;;;5070804;28;20281;-74
2022/03/21 12:43:27;;;;;;;7.70;3.60;;;;;;;;;;5047622;28;20266;-75
2022/03/21 12:45:58;;;;;;;6.77;3.60;;;;;;;;;;5047088;28;20749;-75
2022/03/21 12:48:29;;;;;;;6.73;4.33;;;;;;;;;;5046997;28;20753;-75
2022/03/21 12:50:56;;;;;;;6.17;3.67;;;;;;;;;;5047876;28;20292;-74
2022/03/21 12:53:23;;;;;;;8.23;3.50;;;;;;;;;;5052603;28;20780;-74
2022/03/21 12:56:05;;;;;;;6.97;3.60;;;;;;;;;;5052670;28;20256;-74
2022/03/21 12:58:32;;;;;;;11.23;5.07;;;;;;;;;;5052317;28;20286;-74
2022/03/21 13:01:00;;;;;;;6.53;3.87;;;;;;;;;;5052162;28;20313;-73
2022/03/21 13:03:27;;;;;;;7.23;4.77;;;;;;;;;;5051052;28;20415;-74
2022/03/21 13:11:25;;;;;;;8.57;4.20;;;;;;;;;;5055038;28;20094;-71
2022/03/21 13:13:53;;;;;;;16.50;6.17;;;;;;;;;;5069288;28;20348;-71
2022/03/21 13:16:24;;;;;;;10.37;5.57;;;;;;;;;;5072195;28;20740;-71
2022/03/21 13:18:54;;;;;;;9.73;5.27;;;;;;;;;;5072160;28;20274;-72
2022/03/21 13:21:21;;;;;;;13.43;5.23;;;;;;;;;;5072379;28;20261;-72
2022/03/21 13:23:49;;;;;;;14.27;5.40;;;;;;;;;;5071664;28;20284;-72
2022/03/21 13:26:23;;;;;;;12.13;5.53;;;;;;;;;;5069500;28;20258;-72
2022/03/21 13:28:51;;;;;;;10.95;4.32;;;;;;;;;;5067082;28;20265;-72
2022/03/21 13:31:19;;;;;;;10.90;5.17;;;;;;;;;;5056516;28;20452;-72
2022/03/21 13:33:58;;;;;;;7.87;4.63;;;;;;;;;;5060544;28;20770;-72
2022/03/21 13:36:25;;;;;;;5.57;3.80;;;;;;;;;;5068836;28;20307;-72
2022/03/21 13:39:11;;;;;;;5.93;3.70;;;;;;;;;;5071739;28;20499;-72
2022/03/21 13:42:10;;;;;;;11.23;6.30;;;;;;;;;;5071881;28;20017;-72
2022/03/21 13:44:40;;;;;;;11.13;6.33;;;;;;;;;;5028222;28;20036;-72
2022/03/21 13:47:08;;;;;;;12.40;6.33;;;;;;;;;;5071954;28;20491;-72
2022/03/21 13:49:41;;;;;;;9.03;5.23;;;;;;;;;;5066861;28;20380;-72
2022/03/21 13:52:08;;;;;;;11.57;5.37;;;;;;;;;;5065706;28;20401;-72
2022/03/21 13:54:51;;;;;;;15.33;6.93;;;;;;;;;;5066648;28;20475;-73
2022/03/21 13:57:18;;;;;;;11.97;7.20;;;;;;;;;;5066347;28;20528;-73
2022/03/21 13:59:58;;;;;;;15.77;7.73;;;;;;;;;;5075345;28;20041;-73
2022/03/21 14:02:25;;;;;;;13.10;5.83;;;;;;;;;;5056161;28;20111;-73
2022/03/21 14:04:55;;;;;;;24.20;6.87;;;;;;;;;;5055813;28;20056;-73
2022/03/21 14:07:32;;;;;;;12.53;6.33;;;;;;;;;;5055683;28;20035;-73
2022/03/21 14:09:59;;;;;;;15.03;6.67;;;;;;;;;;5070356;28;20031;-73
2022/03/21 14:12:29;;;;;;;16.67;6.60;;;;;;;;;;5070264;28;20059;-73
2022/03/21 14:14:56;;;;;;;7.73;5.37;;;;;;;;;;5070077;28;20370;-73
2022/03/21 14:17:22;;;;;;;8.17;4.67;;;;;;;;;;5070075;28;20029;-73
2022/03/21 14:19:49;;;;;;;8.20;5.50;;;;;;;;;;5070453;28;20389;-73
2022/03/21 14:22:16;;;;;;;13.00;5.33;;;;;;;;;;5075292;28;20443;-73
2022/03/21 14:24:42;;;;;;;8.33;5.00;;;;;;;;;;5075395;28;20017;-73
2022/03/21 14:27:09;;;;;;;7.53;4.83;;;;;;;;;;5062480;28;20024;-73
2022/03/21 14:29:36;;;;;;;8.63;4.63;;;;;;;;;;5054855;28;20092;-73
2022/03/21 14:32:03;;;;;;;6.70;4.03;;;;;;;;;;5054612;28;20346;-73
2022/03/21 14:34:29;;;;;;;6.30;4.00;;;;;;;;;;5049987;28;20033;-73
2022/03/21 14:36:56;;;;;;;6.17;4.17;;;;;;;;;;5049833;28;20159;-73
2022/03/21 14:39:25;;;;;;;6.70;4.27;;;;;;;;;;5059660;28;20567;-73
2022/03/21 14:41:52;;;;;;;8.70;4.47;;;;;;;;;;5069662;28;20828;-73
2022/03/21 14:44:19;;;;;;;19.40;4.90;;;;;;;;;;5074846;28;20101;-73
2022/03/21 14:46:45;;;;;;;9.00;4.73;;;;;;;;;;5074917;28;20025;-73
2022/03/21 14:49:12;;;;;;;6.53;4.20;;;;;;;;;;5074752;28;20048;-73
2022/03/21 14:51:39;;;;;;;12.03;4.00;;;;;;;;;;5072706;28;20498;-73
2022/03/21 14:54:05;;;;;;;6.53;4.30;;;;;;;;;;5074386;28;20535;-73
2022/03/21 14:56:33;;;;;;;8.87;4.53;;;;;;;;;;5069217;28;20020;-74
2022/03/21 14:58:59;;;;;;;6.13;4.10;;;;;;;;;;5069168;28;20040;-74
2022/03/21 15:01:26;;;;;;;7.00;3.70;;;;;;;;;;5068971;28;20017;-74
2022/03/21 15:03:53;;;;;;;7.40;4.17;;;;;;;;;;5069182;28;20546;-74
2022/03/21 15:06:20;;;;;;;6.70;4.03;;;;;;;;;;5074098;28;20048;-74
2022/03/21 15:08:46;;;;;;;7.37;3.93;;;;;;;;;;5074372;28;20029;-73
2022/03/21 15:11:13;;;;;;;6.30;3.93;;;;;;;;;;5073621;28;20035;-74
2022/03/21 15:13:40;;;;;;;7.70;3.90;;;;;;;;;;5074588;28;20031;-74
2022/03/21 15:16:07;;;;;;;6.63;3.93;;;;;;;;;;5071993;28;20108;-74
2022/03/21 15:18:35;;;;;;;7.80;4.10;;;;;;;;;;5049074;28;20033;-74